Time;durP1;ratioP1;P1;durP2;ratioP2;P2;SDS_P1;SDS_P2;PMS_P1;PMS_P2;Temp;Humidity;BMP_temperature;BMP_pressure;BME280_temperature;BME280_humidity;BME280_pressure;Samples;Min_cycle;Max_cycle;Signal;HPM_P1;HPM_P2
2022/03/10 00:02:21;;;;;;;3.65;2.42;;;;;;;17.22;15.11;100958.25;5112274;28;20030;-73
2022/03/10 00:04:46;;;;;;;4.10;2.88;;;;;;;17.23;14.96;100964.47;5111107;28;20054;-73
2022/03/10 00:07:12;;;;;;;5.20;2.55;;;;;;;17.21;14.78;100950.38;5111457;28;20034;-73
2022/03/10 00:09:37;;;;;;;3.78;2.97;;;;;;;17.24;14.62;100956.31;5113262;28;20035;-74
2022/03/10 00:12:03;;;;;;;4.80;2.20;;;;;;;17.27;14.51;100962.38;5115926;28;20100;-72
2022/03/10 00:14:29;;;;;;;3.78;2.38;;;;;;;17.23;14.79;100954.59;5115519;28;20536;-73
2022/03/10 00:16:55;;;;;;;3.85;2.55;;;;;;;17.26;14.62;100950.84;5115653;28;20032;-71
2022/03/10 00:19:21;;;;;;;3.60;2.33;;;;;;;17.26;14.82;100953.50;5115789;28;20506;-73
2022/03/10 00:21:48;;;;;;;4.25;2.47;;;;;;;17.28;14.62;100951.53;5115398;28;20077;-73
2022/03/10 00:24:14;;;;;;;5.82;2.20;;;;;;;17.28;14.75;100950.69;5116368;28;20070;-72
2022/03/10 00:26:43;;;;;;;3.90;2.65;;;;;;;17.32;14.63;100955.66;5116030;28;20027;-72
2022/03/10 00:29:08;;;;;;;4.38;2.33;;;;;;;17.32;14.82;100960.16;5115645;28;20088;-72
2022/03/10 00:31:34;;;;;;;3.35;2.63;;;;;;;17.30;14.49;100965.63;5115670;27;20039;-73
2022/03/10 00:34:01;;;;;;;3.50;2.40;;;;;;;17.29;14.61;100963.94;5116396;28;20036;-72
2022/03/10 00:36:26;;;;;;;3.42;2.03;;;;;;;17.29;14.46;100974.63;5115553;28;20031;-72
2022/03/10 00:38:52;;;;;;;4.32;2.55;;;;;;;17.28;14.32;100970.25;5115187;28;20032;-72
2022/03/10 00:41:21;;;;;;;3.42;2.22;;;;;;;17.32;14.26;100981.56;5115655;28;20091;-71
2022/03/10 00:43:46;;;;;;;3.88;2.15;;;;;;;17.33;14.56;100986.78;5115989;28;20478;-71
2022/03/10 00:46:12;;;;;;;3.42;2.30;;;;;;;17.34;14.52;100983.13;5115666;28;20118;-71
2022/03/10 00:48:37;;;;;;;4.25;2.40;;;;;;;17.32;14.41;100982.41;5115740;28;20043;-71
2022/03/10 00:51:04;;;;;;;3.15;1.98;;;;;;;17.33;14.57;100992.13;5115544;27;20039;-72
2022/03/10 00:53:32;;;;;;;4.88;2.67;;;;;;;17.34;14.45;100982.28;5115737;28;20027;-72
2022/03/10 00:55:58;;;;;;;4.30;2.45;;;;;;;17.33;14.39;100989.44;5116028;27;20041;-72
2022/03/10 00:58:24;;;;;;;5.20;2.47;;;;;;;17.33;14.26;100989.44;5115101;28;20042;-73
2022/03/10 01:00:51;;;;;;;5.57;2.50;;;;;;;17.32;14.33;100989.59;5114957;28;20406;-72
2022/03/10 01:03:17;;;;;;;4.53;2.38;;;;;;;17.33;14.56;100986.78;5115646;28;20027;-72
2022/03/10 01:05:43;;;;;;;4.72;2.33;;;;;;;17.35;14.62;100995.53;5116523;27;20035;-72
2022/03/10 01:08:09;;;;;;;3.20;2.35;;;;;;;17.35;14.26;100997.38;5115598;28;20032;-72
2022/03/10 01:10:34;;;;;;;5.25;2.42;;;;;;;17.33;14.46;101002.84;5111190;27;20071;-71
2022/03/10 01:13:00;;;;;;;3.85;2.22;;;;;;;17.33;14.62;101004.66;5114532;28;20100;-70
2022/03/10 01:15:27;;;;;;;3.03;2.13;;;;;;;17.34;14.31;101003.69;5114576;28;20034;-72
2022/03/10 01:17:53;;;;;;;3.50;2.58;;;;;;;17.34;14.68;101015.22;5113696;28;20449;-73
2022/03/10 01:20:22;;;;;;;4.13;2.30;;;;;;;17.33;14.62;101021.56;5114931;28;20032;-72
2022/03/10 01:22:48;;;;;;;3.05;2.33;;;;;;;17.32;14.57;101019.03;5113728;28;20126;-73
2022/03/10 01:25:14;;;;;;;3.97;2.40;;;;;;;17.35;14.22;101022.28;5115315;28;20114;-73
2022/03/10 01:27:40;;;;;;;3.80;2.63;;;;;;;17.31;14.50;101020.84;5114646;28;20106;-71
2022/03/10 01:30:08;;;;;;;3.47;2.65;;;;;;;17.32;14.62;101017.19;5114960;28;20028;-71
2022/03/10 01:32:35;;;;;;;3.42;2.38;;;;;;;17.31;14.55;101007.47;5113730;28;20554;-70
2022/03/10 01:35:05;;;;;;;3.85;2.50;;;;;;;17.33;14.13;101018.88;5111875;27;20035;-70
2022/03/10 01:37:32;;;;;;;5.00;3.05;;;;;;;17.31;14.65;101014.66;5111429;27;20038;-72
2022/03/10 01:39:58;;;;;;;4.32;2.28;;;;;;;17.32;14.05;101019.03;5125653;27;20070;-72
2022/03/10 01:42:24;;;;;;;3.53;2.38;;;;;;;17.32;14.16;101029.72;5120453;27;20537;-71
2022/03/10 01:44:54;;;;;;;3.95;2.40;;;;;;;17.31;13.75;101023.50;5112862;27;20042;-72
2022/03/10 01:47:19;;;;;;;3.55;2.05;;;;;;;17.30;14.37;101013.78;5105103;28;20027;-71
2022/03/10 01:49:45;;;;;;;4.50;2.42;;;;;;;17.32;14.43;101022.53;5112827;28;20512;-71
2022/03/10 01:52:10;;;;;;;4.32;2.92;;;;;;;17.34;14.24;101030.44;5112432;28;20028;-71
2022/03/10 01:54:36;;;;;;;4.43;2.58;;;;;;;17.33;14.63;101020.72;5113080;28;20027;-71
2022/03/10 01:57:03;;;;;;;3.40;2.15;;;;;;;17.31;14.54;101028.84;5113149;28;20032;-72
2022/03/10 01:59:29;;;;;;;5.70;2.90;;;;;;;17.31;14.55;101031.53;5114456;28;20035;-73
2022/03/10 02:01:55;;;;;;;3.53;2.40;;;;;;;17.33;14.41;101037.59;5112631;28;20095;-73
2022/03/10 02:04:22;;;;;;;3.35;2.40;;;;;;;17.34;14.57;101041.97;5114109;28;20063;-72
2022/03/10 02:06:48;;;;;;;3.33;2.17;;;;;;;17.34;14.03;101041.16;5113437;28;20031;-74
2022/03/10 02:12:06;;;;;;;3.10;2.28;;;;;;;17.30;14.35;101048.56;5097236;28;20035;-75
2022/03/10 02:17:22;;;;;;;3.70;2.47;;;;;;;17.32;14.08;101054.63;5113826;28;20046;-72
2022/03/10 02:19:53;;;;;;;3.80;2.40;;;;;;;17.31;14.22;101052.94;5114002;28;20035;-72
2022/03/10 02:22:20;;;;;;;;;;;;;;;17.27;15.11;101062.22;5108489;27;20036;-71
2022/03/10 02:24:46;;;;;;;3.88;2.55;;;;;;;17.29;14.52;101052.22;5110478;28;20022;-75
2022/03/10 02:27:16;;;;;;;3.35;2.05;;;;;;;17.34;14.18;101058.03;5112657;28;20039;-71
2022/03/10 02:29:43;;;;;;;5.75;2.80;;;;;;;17.36;14.23;101058.75;5113094;28;20106;-74
2022/03/10 02:32:10;;;;;;;3.88;2.40;;;;;;;17.35;14.25;101050.88;5110776;28;20032;-72
2022/03/10 02:34:37;;;;;;;3.53;2.25;;;;;;;17.36;14.26;101055.22;5101372;28;20579;-71
2022/03/10 02:37:02;;;;;;;2.80;1.95;;;;;;;17.37;14.27;101062.28;5111361;28;20535;-72
2022/03/10 02:39:28;;;;;;;3.20;2.35;;;;;;;17.33;14.29;101064.34;5111897;28;20028;-72
2022/03/10 02:41:53;;;;;;;4.22;2.58;;;;;;;17.35;14.54;101062.41;5113094;28;20036;-73
2022/03/10 02:44:19;;;;;;;4.95;2.17;;;;;;;17.36;14.44;101061.44;5112243;28;20394;-72
2022/03/10 02:46:44;;;;;;;2.92;2.22;;;;;;;17.36;14.52;101066.78;5106134;28;20036;-72
2022/03/10 02:49:10;;;;;;;4.00;2.20;;;;;;;17.34;14.30;101071.41;5110236;28;20035;-72
2022/03/10 02:51:36;;;;;;;4.35;2.85;;;;;;;17.34;14.33;101075.94;5111725;28;20535;-72
2022/03/10 02:54:01;;;;;;;4.07;2.75;;;;;;;17.31;14.56;101071.66;5093973;28;20119;-72
2022/03/10 02:56:27;;;;;;;3.80;2.53;;;;;;;17.29;14.26;101070.09;5096778;28;20509;-72
2022/03/10 02:58:52;;;;;;;3.92;2.40;;;;;;;17.29;14.50;101078.97;5111800;28;20395;-72
2022/03/10 03:01:18;;;;;;;4.95;2.78;;;;;;;17.28;14.30;101074.59;5111222;28;20399;-71
2022/03/10 03:03:43;;;;;;;3.88;2.33;;;;;;;17.27;14.26;101077.41;5111341;28;20034;-72
2022/03/10 03:06:09;;;;;;;3.45;2.15;;;;;;;17.27;14.31;101074.72;5111424;28;20034;-72
2022/03/10 03:08:34;;;;;;;5.00;2.58;;;;;;;17.24;14.13;101076.66;5110702;28;20020;-72
2022/03/10 03:11:00;;;;;;;6.10;2.60;;;;;;;17.26;14.16;101086.41;5110674;28;20700;-71
2022/03/10 03:13:26;;;;;;;4.22;2.90;;;;;;;17.23;14.08;101082.16;5111167;28;20019;-72
2022/03/10 03:15:51;;;;;;;3.60;2.45;;;;;;;17.15;13.86;101071.22;5110731;28;20066;-71
2022/03/10 03:18:17;;;;;;;3.50;2.35;;;;;;;17.15;13.96;101074.75;5105754;28;20072;-72
2022/03/10 03:20:42;;;;;;;4.85;2.10;;;;;;;17.19;14.33;101086.06;5091573;28;20031;-70
2022/03/10 03:23:08;;;;;;;5.03;3.10;;;;;;;17.20;14.31;101077.06;5110972;28;20024;-70
2022/03/10 03:25:33;;;;;;;3.22;2.20;;;;;;;17.21;14.39;101081.44;5110892;28;20047;-70
2022/03/10 03:27:59;;;;;;;5.28;2.78;;;;;;;17.22;14.30;101086.66;5110465;28;20028;-70
2022/03/10 03:30:24;;;;;;;3.60;2.88;;;;;;;17.22;14.05;101088.47;5110971;28;20024;-70
2022/03/10 03:32:50;;;;;;;4.22;2.72;;;;;;;17.22;14.27;101099.19;5110308;28;20088;-70
2022/03/10 03:35:16;;;;;;;4.05;2.33;;;;;;;17.18;13.94;101101.28;5110709;28;20031;-70
2022/03/10 03:37:42;;;;;;;4.45;3.05;;;;;;;17.18;14.02;101103.06;5111041;28;20386;-70
2022/03/10 03:40:09;;;;;;;4.70;2.65;;;;;;;17.15;13.99;101095.28;5094741;28;20081;-72
2022/03/10 03:42:35;;;;;;;3.95;2.70;;;;;;;17.15;14.80;101103.31;5091932;28;20040;-71
2022/03/10 03:45:01;;;;;;;4.82;2.72;;;;;;;17.18;14.31;101105.75;5099281;28;20027;-71
2022/03/10 03:47:27;;;;;;;4.15;2.67;;;;;;;17.16;14.08;101113.03;5115085;28;20509;-71
2022/03/10 03:49:52;;;;;;;4.00;2.85;;;;;;;17.16;13.99;101102.34;5115031;28;20027;-71
2022/03/10 03:52:18;;;;;;;3.83;2.78;;;;;;;17.17;14.12;101109.41;5114505;27;20391;-72
2022/03/10 03:54:43;;;;;;;4.20;2.45;;;;;;;17.17;13.89;101115.63;5115027;28;20588;-72
2022/03/10 03:57:09;;;;;;;4.63;2.85;;;;;;;17.16;13.96;101121.06;5115127;28;20724;-71
2022/03/10 03:59:34;;;;;;;4.65;2.60;;;;;;;17.14;13.94;101125.69;5114612;28;20104;-72
2022/03/10 04:02:00;;;;;;;4.85;2.90;;;;;;;17.11;14.16;101120.63;5113940;28;20020;-71
2022/03/10 04:04:25;;;;;;;4.50;2.80;;;;;;;17.12;14.14;101120.47;5115361;28;20034;-72
2022/03/10 04:06:51;;;;;;;4.43;2.92;;;;;;;17.08;14.06;101130.59;5114497;28;20019;-72
2022/03/10 04:09:16;;;;;;;7.10;2.88;;;;;;;17.08;13.81;101133.25;5115058;28;20539;-73
2022/03/10 04:11:42;;;;;;;4.32;3.00;;;;;;;17.07;14.16;101134.22;5111823;28;20058;-72
2022/03/10 04:14:10;;;;;;;5.03;3.30;;;;;;;17.08;14.09;101140.41;5114315;28;20031;-73
2022/03/10 04:16:35;;;;;;;4.65;2.90;;;;;;;17.07;14.13;101150.28;5113851;28;20038;-72
2022/03/10 04:19:01;;;;;;;5.57;3.05;;;;;;;17.09;13.74;101152.81;5114311;27;20046;-72
2022/03/10 04:21:26;;;;;;;4.80;3.40;;;;;;;17.09;13.97;101147.47;5113948;28;20043;-72
2022/03/10 04:23:52;;;;;;;4.70;3.20;;;;;;;17.08;13.84;101153.78;5114476;28;20426;-73
2022/03/10 04:26:17;;;;;;;5.10;3.28;;;;;;;17.08;14.07;101156.47;5114179;28;20399;-72
2022/03/10 04:28:43;;;;;;;5.55;3.42;;;;;;;17.10;13.89;101162.53;5114286;28;20076;-71
2022/03/10 04:31:09;;;;;;;6.05;3.92;;;;;;;17.10;14.21;101154.50;5113908;28;20031;-72
2022/03/10 04:33:34;;;;;;;5.05;3.25;;;;;;;17.11;13.77;101164.25;5113634;28;20035;-71
2022/03/10 04:36:00;;;;;;;6.47;3.35;;;;;;;17.13;13.82;101151.59;5114036;28;20114;-73
2022/03/10 04:38:28;;;;;;;4.80;3.25;;;;;;;17.14;14.06;101160.47;5112502;28;20475;-73
2022/03/10 04:40:54;;;;;;;7.20;3.40;;;;;;;17.16;14.13;101164.72;5113593;28;20019;-72
2022/03/10 04:43:19;;;;;;;4.88;3.45;;;;;;;17.19;13.87;101167.16;5114094;28;20083;-72
2022/03/10 04:45:45;;;;;;;4.93;3.35;;;;;;;17.21;14.28;101165.19;5094615;28;20035;-72
2022/03/10 04:48:11;;;;;;;6.03;3.22;;;;;;;17.25;14.11;101160.47;5093396;28;20048;-71
2022/03/10 04:50:37;;;;;;;6.93;3.38;;;;;;;17.29;13.89;101171.75;5094688;28;20035;-72
2022/03/10 04:53:03;;;;;;;3.70;2.60;;;;;;;17.33;14.11;101178.56;5111098;28;20191;-71
2022/03/10 04:55:28;;;;;;;4.38;3.30;;;;;;;17.35;14.16;101187.31;5113513;28;20087;-73
2022/03/10 04:57:54;;;;;;;5.80;3.45;;;;;;;17.41;13.94;101180.63;5112438;28;20115;-72
2022/03/10 05:00:19;;;;;;;5.35;3.33;;;;;;;17.39;14.16;101178.06;5110881;28;20082;-72
2022/03/10 05:02:47;;;;;;;5.28;2.80;;;;;;;17.42;13.83;101179.66;5094670;28;20031;-71
2022/03/10 05:05:13;;;;;;;6.07;3.35;;;;;;;17.42;13.95;101185.00;5094611;28;20024;-72
2022/03/10 05:07:40;;;;;;;6.82;4.47;;;;;;;17.41;13.78;101180.63;5096435;28;20546;-73
2022/03/10 05:10:06;;;;;;;4.72;3.20;;;;;;;17.44;13.75;101186.56;5113734;28;20247;-71
2022/03/10 05:12:32;;;;;;;5.95;3.03;;;;;;;17.50;13.70;101190.56;5113085;28;20024;-72
2022/03/10 05:14:57;;;;;;;5.45;3.85;;;;;;;17.53;13.62;101193.81;5114305;28;20042;-73
2022/03/10 05:17:23;;;;;;;5.53;2.80;;;;;;;17.57;13.58;101186.41;5114747;28;20036;-72
2022/03/10 05:19:51;;;;;;;3.88;3.05;;;;;;;17.59;13.69;101186.28;5115114;28;20042;-72
2022/03/10 05:22:17;;;;;;;6.15;3.20;;;;;;;17.67;13.79;101202.53;5113132;28;20114;-72
2022/03/10 05:24:43;;;;;;;5.47;3.05;;;;;;;17.72;13.88;101203.03;5115026;28;20038;-72
2022/03/10 05:27:08;;;;;;;5.03;2.65;;;;;;;17.78;13.76;101209.69;5114058;28;20110;-72
2022/03/10 05:29:34;;;;;;;4.63;2.95;;;;;;;17.76;13.85;101207.16;5114919;28;20028;-72
2022/03/10 05:31:59;;;;;;;6.22;3.05;;;;;;;17.76;13.78;101215.19;5115054;28;20031;-72
2022/03/10 05:34:25;;;;;;;5.88;3.90;;;;;;;17.78;13.88;101217.72;5114219;28;20062;-71
2022/03/10 05:36:51;;;;;;;5.10;3.10;;;;;;;17.77;13.94;101219.56;5114602;28;20115;-71
2022/03/10 05:39:17;;;;;;;5.25;3.08;;;;;;;17.80;13.77;101221.97;5114115;27;20122;-71
2022/03/10 05:41:42;;;;;;;7.18;3.00;;;;;;;17.79;14.03;101214.06;5113930;28;20550;-71
2022/03/10 05:44:08;;;;;;;5.78;3.42;;;;;;;17.77;13.62;101222.25;5113459;28;20127;-71
2022/03/10 05:46:33;;;;;;;7.88;2.90;;;;;;;17.78;13.96;101220.41;5112904;28;20032;-71
2022/03/10 05:48:59;;;;;;;5.43;3.15;;;;;;;17.80;13.70;101229.16;5112661;28;20482;-70
2022/03/10 05:51:24;;;;;;;8.95;3.10;;;;;;;17.77;13.67;101226.72;5094375;28;20067;-72
2022/03/10 05:53:50;;;;;;;4.70;3.20;;;;;;;17.77;14.05;101234.78;5112657;28;20510;-72
2022/03/10 05:56:16;;;;;;;5.57;2.97;;;;;;;17.80;14.08;101240.72;5113531;28;20027;-72
2022/03/10 05:58:42;;;;;;;6.22;2.63;;;;;;;17.81;13.89;101237.06;5112971;28;20038;-72
2022/03/10 06:01:07;;;;;;;5.35;2.97;;;;;;;17.84;14.13;101238.66;5113750;28;20040;-72
2022/03/10 06:03:33;;;;;;;4.78;2.97;;;;;;;17.83;14.12;101234.28;5114626;28;20046;-72
2022/03/10 06:05:59;;;;;;;7.43;4.45;;;;;;;17.84;13.99;101244.84;5111615;28;20405;-72
2022/03/10 06:08:25;;;;;;;4.13;2.90;;;;;;;17.84;14.25;101241.34;5113600;28;20545;-72
2022/03/10 06:10:51;;;;;;;5.15;2.75;;;;;;;17.85;13.88;101243.88;5114043;28;20122;-70
2022/03/10 06:13:16;;;;;;;3.97;2.67;;;;;;;17.84;14.16;101242.16;5112963;27;20031;-72
2022/03/10 06:15:42;;;;;;;4.72;3.08;;;;;;;17.80;14.06;101243.38;5113201;28;20485;-72
2022/03/10 06:18:08;;;;;;;6.70;2.88;;;;;;;17.85;14.04;101257.25;5113880;28;20052;-72
2022/03/10 06:20:34;;;;;;;3.78;2.97;;;;;;;17.87;13.90;101258.97;5113648;28;20405;-71
2022/03/10 06:23:00;;;;;;;5.82;3.63;;;;;;;17.89;13.95;101260.53;5113543;28;20027;-71
2022/03/10 06:25:25;;;;;;;3.97;2.22;;;;;;;17.89;13.70;101247.13;5113806;27;20032;-71
2022/03/10 06:27:51;;;;;;;5.18;2.78;;;;;;;17.91;13.92;101263.09;5113171;28;20474;-71
2022/03/10 06:30:16;;;;;;;4.28;2.95;;;;;;;17.87;13.89;101265.16;5113689;28;20110;-72
2022/03/10 06:32:42;;;;;;;3.70;2.60;;;;;;;17.84;14.01;101257.41;5112297;28;20035;-72
2022/03/10 06:35:08;;;;;;;6.57;2.60;;;;;;;17.82;13.94;101262.84;5111505;27;20036;-72
2022/03/10 06:37:34;;;;;;;4.25;2.35;;;;;;;17.83;13.83;101261.06;5112265;27;20035;-70
2022/03/10 06:39:59;;;;;;;3.65;2.50;;;;;;;17.85;13.95;101259.09;5097238;28;20115;-71
2022/03/10 06:42:25;;;;;;;4.72;2.58;;;;;;;17.87;13.90;101254.44;5105516;28;20240;-70
2022/03/10 06:44:51;;;;;;;4.38;2.65;;;;;;;17.89;13.96;101255.16;5113744;28;20034;-71
2022/03/10 06:47:16;;;;;;;6.22;2.75;;;;;;;17.92;13.83;101260.28;5112921;28;20068;-71
2022/03/10 06:49:42;;;;;;;3.70;2.45;;;;;;;17.94;13.94;101262.84;5113138;28;20547;-70
2022/03/10 06:52:08;;;;;;;3.03;2.15;;;;;;;17.93;13.93;101264.66;5112395;28;20035;-72
2022/03/10 06:54:34;;;;;;;2.95;2.30;;;;;;;17.91;13.99;101260.41;5113239;28;20039;-71
2022/03/10 06:57:00;;;;;;;4.45;2.25;;;;;;;17.94;13.78;101269.03;5113384;28;20398;-70
2022/03/10 06:59:26;;;;;;;3.83;2.45;;;;;;;17.91;13.81;101257.75;5112518;27;20058;-70
2022/03/10 07:01:52;;;;;;;3.65;2.30;;;;;;;17.92;13.48;101262.97;5111341;27;20535;-70
2022/03/10 07:04:17;;;;;;;5.18;2.38;;;;;;;17.92;13.40;101271.00;5108908;28;20199;-71
2022/03/10 07:06:43;;;;;;;5.68;2.33;;;;;;;17.94;13.56;101268.22;5111621;27;20031;-71
2022/03/10 07:09:08;;;;;;;3.80;2.35;;;;;;;17.92;13.61;101260.28;5112684;28;20043;-72
2022/03/10 07:11:34;;;;;;;3.58;2.33;;;;;;;17.96;13.49;101267.09;5109911;28;20523;-71
2022/03/10 07:13:59;;;;;;;3.28;2.20;;;;;;;17.96;13.71;101271.59;5111529;27;20035;-71
2022/03/10 07:16:25;;;;;;;5.03;2.45;;;;;;;17.99;13.65;101269.56;5110434;27;20034;-71
2022/03/10 07:18:51;;;;;;;3.47;2.10;;;;;;;17.98;13.92;101269.66;5111974;28;20138;-72
2022/03/10 07:21:20;;;;;;;7.55;2.45;;;;;;;17.97;13.85;101267.94;5112076;28;20031;-72
2022/03/10 07:23:47;;;;;;;4.05;2.50;;;;;;;18.01;13.98;101273.94;5111803;28;20038;-71
2022/03/10 07:26:12;;;;;;;3.05;1.92;;;;;;;17.98;13.58;101275.03;5111045;28;20046;-71
2022/03/10 07:28:39;;;;;;;3.55;2.03;;;;;;;17.95;13.46;101275.25;5110794;28;20035;-70
2022/03/10 07:31:05;;;;;;;5.43;2.30;;;;;;;17.95;13.52;101278.78;5112208;28;20036;-71
2022/03/10 07:33:31;;;;;;;6.45;2.30;;;;;;;17.95;13.65;101269.88;5112789;28;20490;-73
2022/03/10 07:35:56;;;;;;;4.45;2.45;;;;;;;17.96;13.79;101272.44;5112262;28;20114;-71
2022/03/10 07:38:22;;;;;;;4.57;2.65;;;;;;;17.97;14.06;101279.53;5110483;28;20028;-70
2022/03/10 07:40:47;;;;;;;5.05;2.50;;;;;;;17.97;13.82;101279.53;5111315;28;20027;-70
2022/03/10 07:43:13;;;;;;;3.60;2.40;;;;;;;17.99;14.01;101271.38;5110658;28;20039;-71
2022/03/10 07:45:39;;;;;;;4.07;2.40;;;;;;;18.02;13.84;101270.25;5112060;28;20027;-71
2022/03/10 07:48:05;;;;;;;4.68;2.60;;;;;;;18.03;13.67;101271.97;5112748;28;20046;-70
2022/03/10 07:50:31;;;;;;;5.68;2.75;;;;;;;18.02;13.91;101268.44;5111416;28;20402;-70
2022/03/10 07:52:56;;;;;;;3.58;2.53;;;;;;;18.01;14.04;101258.69;5110924;28;20027;-69
2022/03/10 07:55:22;;;;;;;5.07;3.00;;;;;;;18.04;13.72;101252.22;5110273;28;20434;-70
2022/03/10 07:57:48;;;;;;;5.18;2.75;;;;;;;18.03;14.06;101253.22;5111193;28;20031;-70
2022/03/10 08:00:14;;;;;;;3.58;2.22;;;;;;;18.06;13.63;101253.81;5107970;28;20026;-70
2022/03/10 08:02:39;;;;;;;4.38;2.28;;;;;;;18.08;13.73;101261.72;5112234;28;20023;-71
2022/03/10 08:05:05;;;;;;;6.30;2.30;;;;;;;18.03;13.79;101258.56;5111726;28;20035;-69
2022/03/10 08:07:34;;;;;;;5.15;2.38;;;;;;;18.05;14.06;101254.81;5111578;28;20054;-69
2022/03/10 08:10:01;;;;;;;4.60;2.58;;;;;;;18.05;13.80;101249.44;5111693;28;20035;-69
2022/03/10 08:12:29;;;;;;;6.95;2.67;;;;;;;18.04;13.84;101263.81;5117118;28;20122;-70
2022/03/10 08:14:55;;;;;;;8.45;2.75;;;;;;;18.06;13.83;101256.50;5111178;28;20031;-69
2022/03/10 08:17:20;;;;;;;9.65;3.13;;;;;;;18.09;14.15;101252.72;5111898;28;20041;-69
2022/03/10 08:19:46;;;;;;;5.88;3.03;;;;;;;18.09;13.65;101255.38;5111506;28;20069;-69
2022/03/10 08:22:11;;;;;;;5.82;3.00;;;;;;;18.11;13.88;101254.28;5111455;28;20031;-70
2022/03/10 08:24:41;;;;;;;7.00;3.20;;;;;;;18.11;13.98;101248.09;5111537;28;20404;-69
2022/03/10 08:27:07;;;;;;;5.53;2.67;;;;;;;18.14;14.50;101250.50;5109809;28;20036;-69
2022/03/10 08:29:33;;;;;;;6.13;3.03;;;;;;;18.15;14.08;101241.50;5110747;28;20118;-69
2022/03/10 08:31:59;;;;;;;3.95;2.47;;;;;;;18.14;13.85;101247.84;5114219;27;20504;-70
2022/03/10 08:34:24;;;;;;;3.55;2.10;;;;;;;18.15;14.17;101253.03;5116651;28;20042;-70
2022/03/10 08:36:50;;;;;;;5.40;2.53;;;;;;;18.17;13.96;101249.38;5113934;28;20027;-70
2022/03/10 08:39:16;;;;;;;4.75;1.88;;;;;;;18.15;14.15;101247.69;5115570;27;20486;-70
2022/03/10 08:41:42;;;;;;;5.63;2.20;;;;;;;18.16;14.02;101245.84;5115158;28;20452;-69
2022/03/10 08:44:08;;;;;;;5.50;2.28;;;;;;;18.18;14.08;101243.06;5115894;28;20035;-70
2022/03/10 08:46:33;;;;;;;3.70;2.40;;;;;;;18.17;13.76;101247.56;5114689;28;20118;-70
2022/03/10 08:48:59;;;;;;;2.25;1.60;;;;;;;18.20;13.96;101239.25;5115757;28;20051;-69
2022/03/10 08:51:24;;;;;;;2.90;2.00;;;;;;;18.22;13.87;101250.69;5100756;28;20118;-70
2022/03/10 08:53:50;;;;;;;3.92;1.63;;;;;;;18.21;13.75;101249.00;5114540;28;20043;-71
2022/03/10 08:56:15;;;;;;;2.83;1.23;;;;;;;18.20;13.81;101252.66;5115261;28;20038;-72
2022/03/10 08:58:41;;;;;;;2.70;1.75;;;;;;;18.20;14.01;101243.78;5113658;28;20111;-71
2022/03/10 09:01:06;;;;;;;4.07;1.83;;;;;;;18.19;14.07;101244.75;5115314;28;20027;-70
2022/03/10 09:03:32;;;;;;;3.00;1.80;;;;;;;18.20;14.06;101255.34;5115504;28;20371;-71
2022/03/10 09:05:58;;;;;;;3.28;1.58;;;;;;;18.20;14.12;101244.63;5115125;28;20047;-72
2022/03/10 09:08:23;;;;;;;3.58;1.88;;;;;;;18.19;14.36;101250.94;5112177;27;20106;-68
2022/03/10 09:10:49;;;;;;;3.22;1.60;;;;;;;17.88;15.38;101252.63;5113103;27;20111;-68
2022/03/10 09:13:15;;;;;;;3.35;1.63;;;;;;;17.41;15.98;101252.88;5115219;28;20023;-68
2022/03/10 09:15:40;;;;;;;3.20;1.50;;;;;;;16.96;16.56;101251.91;5115360;28;20504;-68
2022/03/10 09:18:06;;;;;;;3.20;1.63;;;;;;;16.45;16.46;101256.63;5114778;28;20092;-69
2022/03/10 09:20:32;;;;;;;2.85;1.55;;;;;;;16.25;16.69;101257.31;5109448;27;20117;-70
2022/03/10 09:22:57;;;;;;;3.42;1.63;;;;;;;16.14;16.69;101242.09;5112473;27;20039;-71
2022/03/10 09:25:23;;;;;;;3.33;2.00;;;;;;;16.22;15.90;101241.50;5114715;27;20039;-70
2022/03/10 09:27:49;;;;;;;22.55;4.07;;;;;;;16.42;15.68;101248.84;5116697;27;20167;-70
2022/03/10 09:30:14;;;;;;;4.10;2.20;;;;;;;16.56;15.68;101237.09;5114734;28;20035;-71
2022/03/10 09:32:43;;;;;;;2.70;1.65;;;;;;;16.74;15.28;101248.19;5114783;28;20433;-71
2022/03/10 09:35:11;;;;;;;2.47;1.60;;;;;;;16.85;15.10;101243.81;5112664;28;20139;-71
2022/03/10 09:37:37;;;;;;;2.45;1.27;;;;;;;16.94;15.31;101232.41;5112496;28;20031;-73
2022/03/10 09:40:04;;;;;;;6.15;1.88;;;;;;;16.99;15.09;101232.09;5112693;27;20083;-70
2022/03/10 09:42:31;;;;;;;2.97;1.90;;;;;;;17.07;14.97;101240.34;5113610;28;20487;-71
2022/03/10 09:44:59;;;;;;;3.38;1.58;;;;;;;17.11;14.93;101247.16;5114831;28;20143;-70
2022/03/10 09:47:26;;;;;;;3.67;1.48;;;;;;;17.12;15.19;101240.84;5109000;27;20032;-70
2022/03/10 09:49:53;;;;;;;3.90;1.90;;;;;;;17.15;15.13;101239.72;5114853;27;20038;-70
2022/03/10 09:52:19;;;;;;;2.90;1.88;;;;;;;17.19;15.37;101235.84;5114604;28;20031;-70
2022/03/10 09:54:44;;;;;;;3.60;1.73;;;;;;;17.20;15.49;101235.75;5110901;28;20400;-69
2022/03/10 09:57:13;;;;;;;4.80;1.67;;;;;;;17.23;15.36;101223.94;5108303;27;20035;-69
2022/03/10 09:59:56;;;;;;;3.63;1.95;;;;;;;17.24;15.70;101222.97;5114191;28;20031;-70
2022/03/10 10:02:21;;;;;;;2.38;1.80;;;;;;;17.30;15.67;101235.81;5113511;27;20038;-70
2022/03/10 10:04:48;;;;;;;3.40;2.08;;;;;;;17.41;15.43;101228.78;5113973;28;20035;-71
2022/03/10 10:07:14;;;;;;;2.67;1.58;;;;;;;17.46;15.97;101227.44;5112438;28;20055;-70
2022/03/10 10:09:41;;;;;;;3.10;1.88;;;;;;;17.51;15.67;101225.22;5114301;28;20109;-70
2022/03/10 10:12:08;;;;;;;5.78;2.10;;;;;;;17.51;15.52;101222.53;5109678;28;20023;-70
2022/03/10 10:14:45;;;;;;;3.58;1.73;;;;;;;17.52;15.20;101231.44;5114341;28;20035;-69
2022/03/10 10:17:10;;;;;;;4.28;1.75;;;;;;;17.50;15.40;101228.03;5113613;27;20038;-70
2022/03/10 10:19:38;;;;;;;3.75;1.80;;;;;;;17.49;15.34;101231.66;5116288;27;20042;-71
2022/03/10 10:22:15;;;;;;;3.50;1.83;;;;;;;17.50;15.84;101222.69;5111440;27;20031;-70
2022/03/10 10:24:58;;;;;;;3.33;1.95;;;;;;;17.49;15.68;101219.16;5113617;28;20035;-71
2022/03/10 10:27:26;;;;;;;3.17;1.58;;;;;;;17.57;15.53;101217.66;5112531;28;20071;-69
2022/03/10 10:29:57;;;;;;;3.55;1.73;;;;;;;17.61;15.50;101222.63;5112314;28;20036;-70
2022/03/10 10:32:34;;;;;;;3.33;1.77;;;;;;;17.59;15.74;101232.63;5113226;28;20028;-70
2022/03/10 10:35:08;;;;;;;2.63;1.52;;;;;;;17.62;15.56;101228.88;5112566;27;20032;-71
2022/03/10 10:37:39;;;;;;;4.10;1.73;;;;;;;17.62;15.64;101227.03;5112920;28;20080;-71
2022/03/10 10:40:06;;;;;;;3.78;1.77;;;;;;;17.64;15.70;101221.56;5112878;28;20143;-70
2022/03/10 10:42:34;;;;;;;2.92;1.75;;;;;;;17.65;15.80;101223.22;5110091;28;20521;-71
2022/03/10 10:45:01;;;;;;;2.72;1.55;;;;;;;17.61;15.52;101224.47;5113487;28;20038;-71
2022/03/10 10:47:29;;;;;;;4.00;1.92;;;;;;;17.62;15.58;101213.63;5113493;27;20028;-69
2022/03/10 10:50:01;;;;;;;5.38;2.03;;;;;;;17.59;15.46;101202.34;5093168;28;20044;-71
2022/03/10 10:52:35;;;;;;;;;;;;;;;17.52;16.05;101226.91;5093702;28;20039;-69
2022/03/10 10:55:19;;;;;;;6.22;1.60;;;;;;;17.52;16.15;101221.56;5092137;28;20302;-70
2022/03/10 10:57:45;;;;;;;4.35;1.70;;;;;;;17.59;15.76;101215.72;5109208;28;20034;-69
2022/03/10 11:00:12;;;;;;;3.30;2.10;;;;;;;17.59;15.43;101211.22;5106916;28;20034;-71
2022/03/10 11:02:42;;;;;;;5.15;2.15;;;;;;;17.61;15.83;101219.97;5091537;28;20066;-71
2022/03/10 11:05:09;;;;;;;7.32;2.40;;;;;;;17.60;15.87;101215.59;5093055;28;20027;-70
2022/03/10 11:07:35;;;;;;;4.60;2.10;;;;;;;17.63;16.02;101212.66;5107320;28;20360;-70
2022/03/10 11:10:03;;;;;;;3.75;2.08;;;;;;;17.64;15.43;101213.53;5113232;28;20031;-70
2022/03/10 11:12:29;;;;;;;3.53;2.40;;;;;;;17.65;15.76;101212.53;5113232;28;20039;-70
2022/03/10 11:14:55;;;;;;;3.63;1.85;;;;;;;17.66;15.40;101214.22;5113037;28;20092;-70
2022/03/10 11:17:20;;;;;;;3.55;2.30;;;;;;;17.64;15.70;101217.03;5112512;28;20031;-69
2022/03/10 11:19:53;;;;;;;2.85;1.88;;;;;;;17.63;15.29;101218.00;5112737;28;20058;-70
2022/03/10 11:22:30;;;;;;;5.95;2.00;;;;;;;17.63;15.67;101219.84;5113048;28;20342;-71
2022/03/10 11:25:06;;;;;;;3.45;1.88;;;;;;;17.63;15.63;101228.72;5112814;28;20039;-70
2022/03/10 11:27:54;;;;;;;3.75;1.70;;;;;;;17.65;15.48;101228.59;5112175;28;20108;-70
2022/03/10 11:30:27;;;;;;;5.43;1.92;;;;;;;17.63;15.86;101223.38;5112236;28;20054;-70